Time;durP1;ratioP1;P1;durP2;ratioP2;P2;SDS_P1;SDS_P2;PMS_P1;PMS_P2;Temp;Humidity;BMP_temperature;BMP_pressure;BME280_temperature;BME280_humidity;BME280_pressure;Samples;Min_cycle;Max_cycle;Signal;HPM_P1;HPM_P2
2024/02/23 05:05:53;;;;;;;0.40;0.40;;;6.30;99.90;;;;;;5824855;23;20285;-69
2024/02/23 05:08:20;;;;;;;0.30;0.30;;;6.20;99.90;;;;;;4973994;28;20293;-69
2024/02/23 05:10:46;;;;;;;0.30;0.30;;;6.20;99.90;;;;;;4974367;28;20608;-69
2024/02/23 05:13:12;;;;;;;0.30;0.30;;;6.20;99.90;;;;;;4974476;28;20525;-67
2024/02/23 05:15:37;;;;;;;0.30;0.30;;;6.20;99.90;;;;;;4956197;28;20278;-68
2024/02/23 05:18:03;;;;;;;0.30;0.30;;;6.20;99.90;;;;;;4963049;28;20538;-68
2024/02/23 05:20:29;;;;;;;0.30;0.30;;;6.20;99.90;;;;;;4974626;28;20522;-68
2024/02/23 05:22:54;;;;;;;0.40;0.40;;;6.20;99.90;;;;;;4974308;28;20407;-68
2024/02/23 05:25:20;;;;;;;0.30;0.30;;;6.10;99.90;;;;;;4973707;28;20657;-68
2024/02/23 05:27:46;;;;;;;0.30;0.30;;;6.10;99.90;;;;;;4956290;28;20624;-69
2024/02/23 05:30:13;;;;;;;0.30;0.30;;;6.10;99.90;;;;;;4974253;28;20656;-69
2024/02/23 05:32:39;;;;;;;0.40;0.40;;;6.10;99.90;;;;;;4974297;28;20518;-66
2024/02/23 05:35:05;;;;;;;0.30;0.30;;;6.10;99.90;;;;;;4973127;28;20177;-69
2024/02/23 05:37:31;;;;;;;0.40;0.40;;;6.10;99.90;;;;;;4973251;28;20180;-71
2024/02/23 05:39:59;;;;;;;0.40;0.40;;;6.10;99.90;;;;;;4978053;28;20202;-69
2024/02/23 05:42:25;;;;;;;0.35;0.35;;;6.10;99.90;;;;;;4974016;28;20183;-68
2024/02/23 05:44:51;;;;;;;0.40;0.40;;;6.00;99.90;;;;;;4973659;28;20180;-69
2024/02/23 05:47:17;;;;;;;0.40;0.40;;;6.00;99.90;;;;;;4973718;28;20991;-68
2024/02/23 05:49:43;;;;;;;0.30;0.30;;;6.00;99.90;;;;;;4974892;28;20195;-69
2024/02/23 05:52:09;;;;;;;0.30;0.30;;;6.00;99.90;;;;;;4977716;28;20246;-69
2024/02/23 05:54:35;;;;;;;0.40;0.40;;;6.00;99.90;;;;;;4977305;28;20168;-69
2024/02/23 05:57:01;;;;;;;0.30;0.30;;;6.00;99.90;;;;;;4959984;28;20315;-69
2024/02/23 05:59:27;;;;;;;0.40;0.40;;;6.00;99.90;;;;;;4977260;28;20647;-69
2024/02/23 06:01:56;;;;;;;0.30;0.30;;;5.90;99.90;;;;;;4977137;28;20468;-69
2024/02/23 06:04:22;;;;;;;0.30;0.30;;;5.90;99.90;;;;;;4977085;28;20182;-69
2024/02/23 06:06:48;;;;;;;0.40;0.40;;;5.90;99.90;;;;;;4976470;28;20739;-69
2024/02/23 06:09:14;;;;;;;0.40;0.40;;;5.90;99.90;;;;;;4976966;28;20186;-68
2024/02/23 06:11:39;;;;;;;0.30;0.30;;;5.90;99.90;;;;;;4977331;28;20654;-69
2024/02/23 06:14:05;;;;;;;0.40;0.40;;;5.90;99.90;;;;;;4977467;28;20224;-68
2024/02/23 06:16:31;;;;;;;0.30;0.30;;;5.80;99.90;;;;;;4976470;28;20191;-70
2024/02/23 06:18:56;;;;;;;0.40;0.40;;;5.70;99.90;;;;;;4959788;28;20178;-69
2024/02/23 06:21:22;;;;;;;0.30;0.30;;;5.70;99.90;;;;;;4972221;28;20184;-68
2024/02/23 06:23:48;;;;;;;0.30;0.30;;;5.70;99.90;;;;;;4965495;28;20190;-69
2024/02/23 06:26:13;;;;;;;0.40;0.40;;;5.70;99.90;;;;;;4976401;28;20212;-68
2024/02/23 06:28:41;;;;;;;0.40;0.40;;;5.70;99.90;;;;;;4959395;28;20198;-69
2024/02/23 06:31:07;;;;;;;0.50;0.50;;;5.60;99.90;;;;;;4976747;28;20179;-67
2024/02/23 06:33:32;;;;;;;0.30;0.30;;;5.50;99.90;;;;;;4976830;28;20182;-68
2024/02/23 06:35:58;;;;;;;0.30;0.30;;;5.50;99.90;;;;;;4976510;28;20195;-67
2024/02/23 06:38:24;;;;;;;0.40;0.40;;;5.50;99.90;;;;;;4987793;28;20224;-67
2024/02/23 06:40:51;;;;;;;0.40;0.40;;;5.50;99.90;;;;;;4982463;28;20191;-67
2024/02/23 06:43:17;;;;;;;0.30;0.30;;;5.50;99.90;;;;;;4976963;28;20187;-67
2024/02/23 06:45:42;;;;;;;0.40;0.40;;;5.50;99.90;;;;;;4981358;28;20510;-67
2024/02/23 06:48:08;;;;;;;0.40;0.40;;;5.60;99.90;;;;;;4996023;28;20210;-68
2024/02/23 06:50:35;;;;;;;0.30;0.30;;;5.50;99.90;;;;;;4984536;28;20200;-68
2024/02/23 06:53:02;;;;;;;0.30;0.30;;;5.60;99.90;;;;;;4995434;28;20209;-67
2024/02/23 06:55:28;;;;;;;0.30;0.30;;;5.60;99.90;;;;;;4992973;28;20791;-69
2024/02/23 06:57:54;;;;;;;0.30;0.30;;;5.60;99.90;;;;;;4942586;28;20188;-69
2024/02/23 07:00:21;;;;;;;0.35;0.35;;;5.60;99.90;;;;;;4957037;28;20188;-70
2024/02/23 07:02:48;;;;;;;0.30;0.30;;;5.70;99.90;;;;;;4975558;28;20186;-68
2024/02/23 07:05:14;;;;;;;0.30;0.30;;;5.80;99.90;;;;;;4975620;28;20197;-68
2024/02/23 07:07:41;;;;;;;0.50;0.50;;;5.80;99.90;;;;;;4953836;28;20259;-69
2024/02/23 07:10:09;;;;;;;0.40;0.40;;;5.80;99.90;;;;;;4945213;28;20266;-68
2024/02/23 07:12:35;;;;;;;0.40;0.40;;;5.90;99.90;;;;;;4958637;28;20549;-69
2024/02/23 07:15:01;;;;;;;0.38;0.38;;;5.90;99.90;;;;;;4975796;28;20183;-69
2024/02/23 07:17:28;;;;;;;0.30;0.30;;;6.00;99.90;;;;;;4975774;28;20188;-70
2024/02/23 07:19:53;;;;;;;0.40;0.40;;;6.00;99.90;;;;;;4975488;28;20520;-68
2024/02/23 07:22:20;;;;;;;0.30;0.30;;;6.10;99.90;;;;;;4975812;28;20193;-69
2024/02/23 07:24:47;;;;;;;1.23;1.15;;;6.10;99.90;;;;;;4975416;28;20179;-69
2024/02/23 07:27:12;;;;;;;0.40;0.40;;;6.20;99.90;;;;;;4958450;28;20219;-71
2024/02/23 07:29:39;;;;;;;0.30;0.30;;;6.30;99.90;;;;;;4975387;28;20179;-68
2024/02/23 07:32:08;;;;;;;0.30;0.30;;;6.30;99.90;;;;;;4958419;28;20424;-68
2024/02/23 07:34:33;;;;;;;0.40;0.40;;;6.40;99.90;;;;;;4975371;28;20235;-69
2024/02/23 07:37:00;;;;;;;0.30;0.30;;;6.40;99.90;;;;;;4958292;28;20196;-67
2024/02/23 07:39:25;;;;;;;0.63;0.60;;;6.50;99.90;;;;;;4975200;28;20176;-68
2024/02/23 07:41:51;;;;;;;0.30;0.30;;;6.60;99.90;;;;;;4975499;28;20180;-68
2024/02/23 07:44:17;;;;;;;0.30;0.30;;;6.60;99.90;;;;;;4957347;28;20179;-67
2024/02/23 07:46:42;;;;;;;0.40;0.40;;;6.70;99.90;;;;;;4975243;28;20423;-68
2024/02/23 07:49:09;;;;;;;0.30;0.30;;;6.80;99.90;;;;;;4975677;28;20236;-69
2024/02/23 07:51:35;;;;;;;0.30;0.30;;;6.90;99.90;;;;;;4975190;28;20247;-68
2024/02/23 07:54:01;;;;;;;0.30;0.30;;;6.90;99.90;;;;;;4957435;28;20271;-67
2024/02/23 07:56:27;;;;;;;0.30;0.30;;;7.00;99.90;;;;;;4974919;28;20594;-69
2024/02/23 07:58:55;;;;;;;0.40;0.40;;;7.10;99.90;;;;;;4975330;28;20411;-67
2024/02/23 08:01:20;;;;;;;0.30;0.30;;;7.20;99.90;;;;;;4975503;28;20179;-69
2024/02/23 08:03:46;;;;;;;0.30;0.30;;;7.30;99.90;;;;;;4975256;28;20192;-68
2024/02/23 08:06:12;;;;;;;0.40;0.40;;;7.30;99.90;;;;;;4974741;28;20566;-69
2024/02/23 08:08:38;;;;;;;0.30;0.30;;;7.30;99.90;;;;;;4974301;28;20299;-67
2024/02/23 08:11:04;;;;;;;0.40;0.40;;;7.30;99.90;;;;;;4974432;28;20591;-68
2024/02/23 08:13:30;;;;;;;0.30;0.30;;;7.40;99.90;;;;;;4973971;28;20770;-69
2024/02/23 08:15:57;;;;;;;0.40;0.40;;;7.30;99.90;;;;;;4973799;28;20192;-68
2024/02/23 08:18:23;;;;;;;0.50;0.50;;;7.40;99.90;;;;;;4974340;28;20172;-67
2024/02/23 08:20:49;;;;;;;0.30;0.30;;;7.40;99.90;;;;;;4974240;28;20164;-68
2024/02/23 08:23:15;;;;;;;0.30;0.30;;;7.40;99.90;;;;;;4940353;28;20278;-68
2024/02/23 08:25:40;;;;;;;0.30;0.30;;;7.30;99.90;;;;;;4973448;28;20992;-68
2024/02/23 08:28:06;;;;;;;0.30;0.30;;;7.30;99.90;;;;;;4974129;28;20295;-66
2024/02/23 08:30:32;;;;;;;0.30;0.30;;;7.40;99.90;;;;;;4974181;28;20296;-68
2024/02/23 08:32:59;;;;;;;0.33;0.33;;;7.40;99.90;;;;;;4973846;28;20930;-68
2024/02/23 08:35:25;;;;;;;0.40;0.40;;;7.50;99.90;;;;;;4973576;28;20808;-68
2024/02/23 08:37:52;;;;;;;0.40;0.40;;;7.50;99.90;;;;;;4973888;28;20265;-67
2024/02/23 08:40:18;;;;;;;0.40;0.40;;;7.60;99.90;;;;;;4973793;28;20177;-68
2024/02/23 08:42:44;;;;;;;0.30;0.30;;;7.60;99.90;;;;;;4973319;28;20276;-67
2024/02/23 08:45:12;;;;;;;0.30;0.30;;;7.60;99.90;;;;;;4956521;28;20180;-68
2024/02/23 08:47:38;;;;;;;0.30;0.30;;;7.60;99.90;;;;;;4956936;28;20200;-67
2024/02/23 08:50:04;;;;;;;0.40;0.40;;;7.70;99.90;;;;;;4973890;28;20180;-69
2024/02/23 08:52:30;;;;;;;0.30;0.30;;;7.80;99.90;;;;;;4973250;28;20172;-68
2024/02/23 08:54:55;;;;;;;0.30;0.30;;;7.90;99.90;;;;;;4973047;28;20187;-68
2024/02/23 08:57:22;;;;;;;0.40;0.40;;;8.00;99.90;;;;;;4973575;28;20192;-68
2024/02/23 08:59:48;;;;;;;0.30;0.30;;;7.90;99.90;;;;;;4973674;28;20303;-67
2024/02/23 09:02:14;;;;;;;0.30;0.30;;;7.90;99.90;;;;;;4973537;28;20177;-68
2024/02/23 09:04:40;;;;;;;0.30;0.30;;;7.90;99.90;;;;;;4973020;28;20195;-69
2024/02/23 09:07:06;;;;;;;0.30;0.30;;;7.90;99.90;;;;;;4936085;28;1081048;-69
2024/02/23 09:09:31;;;;;;;0.30;0.30;;;7.90;99.90;;;;;;4974675;28;20173;-68
2024/02/23 09:11:57;;;;;;;0.33;0.33;;;7.90;99.90;;;;;;4974480;28;20438;-68
2024/02/23 09:14:25;;;;;;;0.40;0.40;;;8.00;99.90;;;;;;4973800;28;20180;-70
2024/02/23 09:16:50;;;;;;;0.30;0.30;;;8.00;99.90;;;;;;4956777;28;20195;-69
2024/02/23 09:19:17;;;;;;;0.30;0.30;;;8.10;99.90;;;;;;4973496;28;20638;-69
2024/02/23 09:21:42;;;;;;;0.30;0.30;;;8.20;99.90;;;;;;4974120;28;20511;-68
2024/02/23 09:24:08;;;;;;;0.30;0.30;;;8.30;99.90;;;;;;4974948;28;20247;-68
2024/02/23 09:26:34;;;;;;;0.30;0.30;;;8.40;99.90;;;;;;4960431;28;20204;-69
2024/02/23 09:29:00;;;;;;;0.30;0.20;;;8.40;99.90;;;;;;4977598;28;20213;-69
2024/02/23 09:31:28;;;;;;;2.08;1.63;;;8.50;99.90;;;;;;4977577;28;20260;-69
2024/02/23 09:33:55;;;;;;;0.30;0.30;;;8.50;99.90;;;;;;4977830;28;20219;-71
2024/02/23 09:36:22;;;;;;;0.30;0.30;;;8.50;99.90;;;;;;4977498;28;20192;-70
2024/02/23 09:38:48;;;;;;;0.30;0.30;;;8.50;99.90;;;;;;4960119;28;20607;-71
2024/02/23 09:41:22;;;;;;;0.52;0.52;;;8.50;99.90;;;;;;4978145;28;20176;-69
2024/02/23 09:43:49;;;;;;;0.40;0.40;;;8.50;99.90;;;;;;4977897;28;20175;-71
2024/02/23 09:46:16;;;;;;;0.30;0.30;;;8.60;99.90;;;;;;4977273;28;20206;-69
2024/02/23 09:48:45;;;;;;;0.30;0.30;;;8.70;99.90;;;;;;4977942;28;20537;-70
2024/02/23 09:51:12;;;;;;;0.30;0.30;;;8.80;99.90;;;;;;4960403;28;20575;-69
2024/02/23 09:53:38;;;;;;;0.30;0.30;;;8.90;99.90;;;;;;4977512;28;20197;-69
2024/02/23 09:56:05;;;;;;;0.30;0.30;;;9.00;99.90;;;;;;4976643;28;20207;-67
2024/02/23 09:58:35;;;;;;;0.30;0.30;;;9.20;99.90;;;;;;4977626;28;20186;-69
2024/02/23 10:01:03;;;;;;;0.30;0.20;;;9.30;99.90;;;;;;4977120;28;20257;-70
2024/02/23 10:03:30;;;;;;;0.30;0.30;;;9.60;99.90;;;;;;4959823;28;20421;-69
2024/02/23 10:06:01;;;;;;;0.30;0.20;;;9.90;99.90;;;;;;4959421;28;20919;-69
2024/02/23 10:08:35;;;;;;;0.30;0.30;;;10.20;99.30;;;;;;4929046;28;20948;-68
2024/02/23 10:11:02;;;;;;;0.30;0.30;;;10.60;98.50;;;;;;4962053;28;20494;-70
2024/02/23 10:13:29;;;;;;;0.30;0.30;;;10.80;97.60;;;;;;4959254;28;20424;-69
2024/02/23 10:15:55;;;;;;;0.30;0.30;;;11.10;97.50;;;;;;4957825;28;20825;-68
2024/02/23 10:18:21;;;;;;;0.30;0.20;;;11.30;96.20;;;;;;4975482;28;20482;-68
2024/02/23 10:20:47;;;;;;;0.30;0.30;;;11.30;96.10;;;;;;4976819;28;20176;-69
2024/02/23 10:23:13;;;;;;;0.30;0.20;;;11.10;96.20;;;;;;4977019;28;20179;-69
2024/02/23 10:25:39;;;;;;;0.30;0.27;;;10.90;96.30;;;;;;4976303;28;20473;-68
2024/02/23 10:28:06;;;;;;;0.30;0.30;;;10.50;96.00;;;;;;4977113;28;20287;-67
2024/02/23 10:30:32;;;;;;;0.30;0.30;;;10.10;96.90;;;;;;4979258;28;20902;-68
2024/02/23 10:32:59;;;;;;;0.30;0.30;;;10.00;96.80;;;;;;4988769;28;20418;-68
2024/02/23 10:35:30;;;;;;;0.30;0.30;;;9.70;97.80;;;;;;4983274;28;20444;-68
2024/02/23 10:37:56;;;;;;;0.30;0.30;;;9.50;97.70;;;;;;4984363;28;20412;-68
2024/02/23 10:40:26;;;;;;;0.40;0.40;;;9.50;98.00;;;;;;4996541;28;20421;-68
2024/02/23 10:42:56;;;;;;;0.40;0.40;;;9.50;98.40;;;;;;4990131;28;20908;-68
2024/02/23 10:45:22;;;;;;;0.30;0.30;;;9.40;98.40;;;;;;4995134;28;20426;-67
2024/02/23 10:47:48;;;;;;;0.30;0.30;;;9.40;98.60;;;;;;4981293;28;20535;-68
2024/02/23 10:50:15;;;;;;;0.30;0.30;;;9.50;98.70;;;;;;4977654;28;20178;-69
2024/02/23 10:52:42;;;;;;;0.30;0.30;;;9.50;98.90;;;;;;4981519;28;20440;-69
2024/02/23 10:55:12;;;;;;;0.30;0.30;;;9.60;97.50;;;;;;4977821;28;20436;-68
2024/02/23 10:57:38;;;;;;;0.30;0.30;;;9.70;97.80;;;;;;4972956;28;20231;-68
2024/02/23 11:00:06;;;;;;;0.30;0.30;;;9.80;97.80;;;;;;4986859;28;20422;-67
2024/02/23 11:02:35;;;;;;;0.30;0.30;;;9.80;98.20;;;;;;4986937;28;20970;-68
2024/02/23 11:05:04;;;;;;;0.30;0.30;;;9.90;98.00;;;;;;4983417;28;20867;-69
2024/02/23 11:07:30;;;;;;;0.30;0.30;;;10.10;97.30;;;;;;4990033;28;20439;-68
2024/02/23 11:09:59;;;;;;;0.30;0.30;;;10.20;96.90;;;;;;4995976;28;20712;-70
2024/02/23 11:12:26;;;;;;;0.30;0.27;;;10.30;96.60;;;;;;4978307;28;20421;-69
2024/02/23 11:15:03;;;;;;;0.30;0.20;;;10.30;96.50;;;;;;4987761;28;20421;-68
2024/02/23 11:17:32;;;;;;;0.30;0.30;;;10.40;96.40;;;;;;4982089;28;20458;-69
2024/02/23 11:19:58;;;;;;;0.30;0.30;;;10.40;95.90;;;;;;4967520;28;20919;-68
2024/02/23 11:22:25;;;;;;;0.30;0.30;;;10.30;96.30;;;;;;4986446;28;20385;-69
2024/02/23 11:24:51;;;;;;;0.30;0.30;;;10.20;96.10;;;;;;4984040;28;20576;-68
2024/02/23 11:27:18;;;;;;;0.30;0.30;;;10.20;95.80;;;;;;4984174;28;20463;-69
2024/02/23 11:29:58;;;;;;;0.30;0.30;;;10.20;95.90;;;;;;4961510;28;20181;-68
2024/02/23 11:32:38;;;;;;;0.30;0.27;;;10.10;95.70;;;;;;4944393;28;20449;-69
2024/02/23 11:35:06;;;;;;;0.30;0.30;;;10.00;96.10;;;;;;4974965;28;20799;-67
2024/02/23 11:37:32;;;;;;;0.37;0.37;;;9.90;97.20;;;;;;4982165;28;20396;-70
2024/02/23 11:40:01;;;;;;;0.30;0.30;;;9.90;97.50;;;;;;4984444;28;20435;-68
2024/02/23 11:42:27;;;;;;;0.30;0.20;;;10.00;96.40;;;;;;4984053;28;20413;-69
2024/02/23 11:44:55;;;;;;;0.30;0.30;;;10.00;96.80;;;;;;4984103;28;20954;-69
2024/02/23 11:47:20;;;;;;;0.30;0.30;;;10.00;96.40;;;;;;4989602;28;20463;-67
2024/02/23 11:49:46;;;;;;;0.30;0.30;;;10.10;95.80;;;;;;4984888;28;20880;-68
2024/02/23 11:52:12;;;;;;;0.30;0.30;;;10.10;96.30;;;;;;4975389;28;20176;-68
2024/02/23 11:54:37;;;;;;;0.30;0.30;;;10.20;95.70;;;;;;4976574;28;20182;-68
2024/02/23 11:57:04;;;;;;;0.30;0.20;;;10.20;95.70;;;;;;4987147;28;20605;-69
2024/02/23 11:59:30;;;;;;;0.30;0.30;;;10.20;95.90;;;;;;4985565;28;20874;-70
2024/02/23 12:01:57;;;;;;;0.40;0.40;;;10.20;95.80;;;;;;4980798;28;20405;-71
2024/02/23 12:04:22;;;;;;;0.30;0.20;;;10.30;96.50;;;;;;4966051;28;20652;-68
2024/02/23 12:06:48;;;;;;;0.40;0.40;;;10.40;95.90;;;;;;4993079;28;20520;-68
2024/02/23 12:09:15;;;;;;;0.30;0.30;;;10.40;95.50;;;;;;4976933;28;20706;-66
2024/02/23 12:11:41;;;;;;;0.30;0.30;;;10.30;95.50;;;;;;4990073;28;20415;-67
2024/02/23 12:14:08;;;;;;;0.30;0.30;;;10.30;95.30;;;;;;4982059;28;20422;-68
2024/02/23 12:16:37;;;;;;;0.30;0.30;;;10.30;95.60;;;;;;4991448;28;20434;-67
2024/02/23 12:19:03;;;;;;;0.30;0.30;;;10.30;95.30;;;;;;4994386;28;20420;-68
2024/02/23 12:21:29;;;;;;;0.30;0.30;;;10.20;95.30;;;;;;4959764;28;20393;-68
2024/02/23 12:23:55;;;;;;;0.30;0.30;;;10.10;95.80;;;;;;4956733;28;20545;-67
2024/02/23 12:26:21;;;;;;;0.30;0.30;;;10.10;95.70;;;;;;4974008;28;20246;-69
2024/02/23 12:28:47;;;;;;;0.30;0.30;;;10.00;95.40;;;;;;4957007;28;20441;-66
2024/02/23 12:31:13;;;;;;;0.30;0.30;;;10.00;95.80;;;;;;4973773;28;20195;-69
2024/02/23 12:33:39;;;;;;;0.30;0.30;;;10.00;95.80;;;;;;4956882;28;20411;-69
2024/02/23 12:36:07;;;;;;;0.30;0.20;;;10.00;95.80;;;;;;4973555;28;20450;-70
2024/02/23 12:38:33;;;;;;;0.30;0.20;;;10.10;96.00;;;;;;4955326;28;20469;-70
2024/02/23 12:41:05;;;;;;;0.50;0.50;;;10.20;96.50;;;;;;4972832;28;20410;-69
2024/02/23 12:43:31;;;;;;;0.30;0.30;;;10.30;96.30;;;;;;4972793;28;20417;-72
2024/02/23 12:45:57;;;;;;;0.30;0.30;;;10.40;95.80;;;;;;4971935;28;20851;-70
2024/02/23 12:48:23;;;;;;;0.40;0.40;;;10.50;96.00;;;;;;4972809;28;20206;-68
2024/02/23 12:50:50;;;;;;;0.30;0.30;;;10.60;95.80;;;;;;4973421;28;20510;-69
2024/02/23 12:53:35;;;;;;;0.30;0.30;;;10.60;95.30;;;;;;4957014;28;20414;-68
2024/02/23 12:56:07;;;;;;;0.30;0.20;;;10.60;95.80;;;;;;4973516;28;20538;-68
2024/02/23 12:58:34;;;;;;;0.30;0.30;;;10.60;95.10;;;;;;4974204;28;20757;-69
2024/02/23 13:00:59;;;;;;;0.30;0.27;;;10.70;95.00;;;;;;4986872;28;20395;-67
2024/02/23 13:03:26;;;;;;;0.37;0.37;;;10.70;94.80;;;;;;4985628;28;20430;-68
2024/02/23 13:05:53;;;;;;;0.30;0.20;;;10.50;94.90;;;;;;4976519;28;20809;-70
2024/02/23 13:08:19;;;;;;;0.30;0.30;;;10.50;95.30;;;;;;4976143;28;20459;-69
2024/02/23 13:10:45;;;;;;;0.30;0.20;;;10.40;95.80;;;;;;4976348;28;20783;-72
2024/02/23 13:13:10;;;;;;;0.30;0.30;;;10.40;96.30;;;;;;4993604;28;20169;-69
2024/02/23 13:15:39;;;;;;;0.30;0.30;;;10.50;96.50;;;;;;4980001;28;20450;-71
2024/02/23 13:18:05;;;;;;;0.30;0.30;;;10.50;96.20;;;;;;4956974;28;20213;-71
2024/02/23 13:20:31;;;;;;;0.30;0.30;;;10.60;96.00;;;;;;4974388;28;20514;-71
2024/02/23 13:22:57;;;;;;;0.30;0.20;;;10.60;95.60;;;;;;4956911;28;20501;-68
2024/02/23 13:25:22;;;;;;;0.30;0.30;;;10.50;95.50;;;;;;4973278;28;20183;-69
2024/02/23 13:27:48;;;;;;;0.30;0.30;;;10.40;96.00;;;;;;4975054;28;20206;-72
2024/02/23 13:30:14;;;;;;;0.30;0.30;;;10.40;96.10;;;;;;4974457;28;20203;-69
2024/02/23 13:32:39;;;;;;;0.30;0.30;;;10.30;96.00;;;;;;4974413;28;20589;-69
2024/02/23 13:35:06;;;;;;;0.37;0.37;;;10.30;96.40;;;;;;4973440;28;20415;-70
2024/02/23 13:37:32;;;;;;;0.30;0.30;;;10.30;96.80;;;;;;4974085;28;20540;-73
2024/02/23 13:39:58;;;;;;;0.30;0.30;;;10.20;96.90;;;;;;4974071;28;20388;-69
2024/02/23 13:42:23;;;;;;;0.30;0.30;;;10.30;96.60;;;;;;4974082;28;20772;-70
2024/02/23 13:44:49;;;;;;;0.30;0.30;;;10.30;96.40;;;;;;4973546;28;20224;-70
2024/02/23 13:47:15;;;;;;;0.70;0.70;;;10.30;96.50;;;;;;4974031;28;20193;-69
2024/02/23 13:49:40;;;;;;;0.30;0.27;;;10.30;96.20;;;;;;4973335;28;20270;-68
2024/02/23 13:52:06;;;;;;;0.30;0.27;;;10.30;96.20;;;;;;4974065;28;20174;-69
2024/02/23 13:54:32;;;;;;;0.30;0.30;;;10.30;96.20;;;;;;4973769;28;20232;-68
2024/02/23 13:56:57;;;;;;;0.30;0.30;;;10.30;96.50;;;;;;4956518;28;20612;-72
2024/02/23 13:59:23;;;;;;;0.30;0.30;;;10.20;96.60;;;;;;4973153;28;20183;-75
2024/02/23 14:01:49;;;;;;;0.30;0.30;;;10.20;96.70;;;;;;4956519;28;20190;-73
2024/02/23 14:04:14;;;;;;;0.30;0.27;;;10.20;96.80;;;;;;4973706;28;20245;-68
2024/02/23 14:06:40;;;;;;;0.30;0.30;;;10.30;96.80;;;;;;4972853;28;20691;-68
2024/02/23 14:09:05;;;;;;;0.30;0.30;;;10.30;96.40;;;;;;4973936;28;20226;-68
2024/02/23 14:11:32;;;;;;;0.30;0.30;;;10.40;96.60;;;;;;4976273;28;20171;-68
2024/02/23 14:13:58;;;;;;;0.30;0.30;;;10.40;97.00;;;;;;4977453;28;20593;-68
2024/02/23 14:16:24;;;;;;;0.30;0.30;;;10.40;97.10;;;;;;4959429;28;20480;-67
2024/02/23 14:18:50;;;;;;;0.30;0.30;;;10.50;97.10;;;;;;4977167;28;20180;-67
2024/02/23 14:21:18;;;;;;;0.30;0.30;;;10.50;96.20;;;;;;4977225;28;20178;-67
2024/02/23 14:23:43;;;;;;;0.30;0.30;;;10.40;96.20;;;;;;4976982;28;20180;-66
2024/02/23 14:26:10;;;;;;;0.30;0.30;;;10.50;96.30;;;;;;4976230;28;20454;-67
2024/02/23 14:28:35;;;;;;;0.40;0.40;;;10.50;96.30;;;;;;4976752;28;20216;-66
2024/02/23 14:31:01;;;;;;;0.30;0.30;;;10.50;96.20;;;;;;4977028;28;20900;-67
2024/02/23 14:33:28;;;;;;;0.40;0.40;;;10.50;96.00;;;;;;4976915;28;20184;-67
2024/02/23 14:35:55;;;;;;;0.30;0.30;;;10.40;96.10;;;;;;4975644;28;20193;-67
2024/02/23 14:38:21;;;;;;;0.30;0.30;;;10.40;96.30;;;;;;4956879;29;20404;-67
2024/02/23 14:40:46;;;;;;;0.30;0.30;;;10.40;96.30;;;;;;4956823;29;20394;-67
2024/02/23 14:43:12;;;;;;;0.30;0.30;;;10.30;96.70;;;;;;4956750;29;20258;-67
2024/02/23 14:45:38;;;;;;;0.30;0.30;;;10.40;97.30;;;;;;4938160;29;20573;-66
2024/02/23 14:48:04;;;;;;;0.30;0.30;;;10.40;96.80;;;;;;4973771;28;20440;-67
2024/02/23 14:50:30;;;;;;;0.30;0.30;;;10.40;96.40;;;;;;4976437;28;20207;-66
2024/02/23 14:52:56;;;;;;;0.30;0.30;;;10.60;96.50;;;;;;4977189;28;20416;-66
2024/02/23 14:55:22;;;;;;;0.30;0.30;;;10.50;96.50;;;;;;4976343;28;20229;-67
2024/02/23 14:57:47;;;;;;;0.30;0.30;;;10.60;96.80;;;;;;4976403;28;20528;-68
2024/02/23 15:00:16;;;;;;;0.30;0.20;;;10.50;96.40;;;;;;4976552;28;20190;-67
2024/02/23 15:02:42;;;;;;;0.30;0.30;;;10.50;96.50;;;;;;4976643;28;20200;-68
2024/02/23 15:05:09;;;;;;;0.30;0.30;;;10.50;96.30;;;;;;4975801;28;20418;-66
2024/02/23 15:07:35;;;;;;;0.30;0.20;;;10.40;96.50;;;;;;4975837;28;20468;-66
2024/02/23 15:10:05;;;;;;;0.30;0.30;;;10.40;96.50;;;;;;4976531;28;20388;-67
2024/02/23 15:12:31;;;;;;;0.30;0.20;;;10.40;96.30;;;;;;4976851;28;20513;-66
2024/02/23 15:14:58;;;;;;;0.30;0.30;;;10.50;96.20;;;;;;4975834;28;20774;-66
2024/02/23 15:17:23;;;;;;;0.30;0.30;;;10.40;96.20;;;;;;4975933;28;20562;-67
2024/02/23 15:19:49;;;;;;;0.30;0.30;;;10.30;96.00;;;;;;4976384;28;20480;-67
2024/02/23 15:22:18;;;;;;;0.50;0.50;;;10.30;96.50;;;;;;4975937;28;20424;-67
2024/02/23 15:24:49;;;;;;;0.30;0.30;;;10.30;96.50;;;;;;4976118;28;20178;-68
2024/02/23 15:27:24;;;;;;;0.30;0.30;;;10.20;96.50;;;;;;4959384;28;20448;-68
2024/02/23 15:29:49;;;;;;;0.30;0.30;;;10.10;96.60;;;;;;4976026;28;20185;-66
2024/02/23 15:32:16;;;;;;;0.30;0.30;;;10.00;96.80;;;;;;4975999;28;20174;-67
2024/02/23 15:34:41;;;;;;;0.30;0.30;;;10.00;96.90;;;;;;4975590;28;20260;-67
2024/02/23 15:37:07;;;;;;;0.30;0.30;;;10.00;96.90;;;;;;4975451;28;20209;-67
2024/02/23 15:39:32;;;;;;;0.30;0.30;;;9.90;97.60;;;;;;4975802;28;20257;-67
2024/02/23 15:41:58;;;;;;;0.30;0.30;;;9.90;97.60;;;;;;4975713;28;20178;-67
2024/02/23 15:44:25;;;;;;;0.40;0.40;;;9.80;97.60;;;;;;4975478;28;20182;-67
2024/02/23 15:46:51;;;;;;;0.40;0.40;;;9.80;97.60;;;;;;4975396;28;20194;-67
2024/02/23 15:49:18;;;;;;;0.40;0.40;;;9.80;97.70;;;;;;4941156;28;20532;-69
2024/02/23 15:51:44;;;;;;;0.30;0.30;;;9.80;97.80;;;;;;4975704;28;20808;-67
2024/02/23 15:54:10;;;;;;;0.30;0.30;;;9.80;98.00;;;;;;4975831;28;20501;-70
2024/02/23 15:56:37;;;;;;;0.30;0.30;;;9.80;97.80;;;;;;4975099;28;20200;-65
2024/02/23 15:59:07;;;;;;;0.30;0.30;;;9.80;97.60;;;;;;4974855;28;20182;-71
2024/02/23 16:01:36;;;;;;;0.30;0.30;;;9.80;97.40;;;;;;4975292;28;20165;-69
2024/02/23 16:04:02;;;;;;;0.30;0.30;;;9.70;97.40;;;;;;4975666;28;20219;-68
2024/02/23 16:06:33;;;;;;;0.30;0.30;;;9.60;97.60;;;;;;4974990;28;20196;-68
2024/02/23 16:08:59;;;;;;;0.30;0.30;;;9.60;98.20;;;;;;4974892;28;20215;-69
2024/02/23 16:11:25;;;;;;;0.40;0.40;;;9.50;98.60;;;;;;4975199;28;20169;-72
2024/02/23 16:13:51;;;;;;;0.40;0.40;;;9.50;98.90;;;;;;4975187;28;20608;-68
2024/02/23 16:16:17;;;;;;;0.32;0.32;;;9.40;99.30;;;;;;4974398;28;20882;-70
2024/02/23 16:18:43;;;;;;;0.30;0.30;;;9.40;99.70;;;;;;4974667;28;20250;-72
2024/02/23 16:21:14;;;;;;;0.30;0.30;;;9.30;99.90;;;;;;4974755;28;20497;-72
2024/02/23 16:23:40;;;;;;;0.30;0.28;;;9.40;99.90;;;;;;4975134;28;20183;-68
2024/02/23 16:26:05;;;;;;;0.30;0.30;;;9.50;99.70;;;;;;4974346;28;20198;-67
2024/02/23 16:28:32;;;;;;;0.30;0.30;;;9.50;99.40;;;;;;4975077;28;20192;-72
2024/02/23 16:30:58;;;;;;;0.30;0.30;;;9.60;99.40;;;;;;4957460;28;20241;-72
2024/02/23 16:33:25;;;;;;;0.40;0.40;;;9.60;99.10;;;;;;4974574;28;20173;-74
2024/02/23 16:35:51;;;;;;;0.30;0.30;;;9.60;99.30;;;;;;4974037;28;20254;-70
2024/02/23 16:38:17;;;;;;;0.30;0.30;;;9.50;99.10;;;;;;4975072;28;20176;-68
2024/02/23 16:40:42;;;;;;;0.30;0.30;;;9.50;99.20;;;;;;4974443;28;20185;-68
2024/02/23 16:43:10;;;;;;;0.30;0.30;;;9.50;99.30;;;;;;4957580;28;20199;-69
2024/02/23 16:45:36;;;;;;;0.30;0.30;;;9.40;99.30;;;;;;4974300;28;20196;-66
2024/02/23 16:48:06;;;;;;;0.30;0.30;;;9.30;99.10;;;;;;4974841;28;20199;-66
2024/02/23 16:50:32;;;;;;;0.30;0.30;;;9.20;99.00;;;;;;4974194;28;20231;-67
2024/02/23 16:52:57;;;;;;;0.30;0.30;;;9.10;99.10;;;;;;4974584;28;20260;-67
2024/02/23 16:55:23;;;;;;;0.30;0.30;;;9.00;99.10;;;;;;4973989;28;20403;-68
2024/02/23 16:57:49;;;;;;;0.30;0.30;;;9.00;99.20;;;;;;4974634;28;20165;-66
2024/02/23 17:00:15;;;;;;;0.35;0.35;;;8.90;99.50;;;;;;4974198;28;20193;-68
2024/02/23 17:02:41;;;;;;;0.30;0.30;;;8.80;99.60;;;;;;4974533;28;20658;-66
2024/02/23 17:05:08;;;;;;;0.30;0.30;;;8.70;99.70;;;;;;4974003;28;20802;-65
2024/02/23 17:07:33;;;;;;;0.30;0.30;;;8.70;99.80;;;;;;4974310;28;20215;-67
2024/02/23 17:09:59;;;;;;;0.30;0.30;;;8.60;99.90;;;;;;4974031;28;20224;-68
2024/02/23 17:12:27;;;;;;;0.30;0.30;;;8.60;99.90;;;;;;4974340;28;20165;-68
2024/02/23 17:14:52;;;;;;;0.30;0.30;;;8.60;99.90;;;;;;4957558;28;20599;-66
2024/02/23 17:17:18;;;;;;;0.30;0.30;;;8.60;99.90;;;;;;4974090;28;20185;-65
2024/02/23 17:19:45;;;;;;;0.40;0.40;;;8.60;99.90;;;;;;4973933;28;20554;-67
2024/02/23 17:22:11;;;;;;;0.30;0.30;;;8.60;99.90;;;;;;4974185;28;20184;-70
2024/02/23 17:24:36;;;;;;;0.30;0.30;;;8.50;99.90;;;;;;4973909;28;20234;-67
2024/02/23 17:27:03;;;;;;;0.30;0.30;;;8.50;99.90;;;;;;4973778;28;20188;-70
2024/02/23 17:29:32;;;;;;;0.30;0.30;;;8.50;99.90;;;;;;4972980;28;20590;-69
2024/02/23 17:32:01;;;;;;;0.30;0.30;;;8.40;99.90;;;;;;4973994;28;20547;-70
2024/02/23 17:34:27;;;;;;;0.30;0.30;;;8.40;99.90;;;;;;4973218;28;20172;-66
2024/02/23 17:36:52;;;;;;;0.40;0.40;;;8.40;99.90;;;;;;4974038;28;20245;-67
2024/02/23 17:39:18;;;;;;;0.40;0.40;;;8.30;99.90;;;;;;4972463;28;20176;-70
2024/02/23 17:41:43;;;;;;;0.30;0.30;;;8.30;99.90;;;;;;4973553;28;20180;-68
2024/02/23 17:44:10;;;;;;;0.30;0.30;;;8.20;99.90;;;;;;4971716;28;20299;-67
2024/02/23 17:46:38;;;;;;;0.30;0.30;;;8.20;99.90;;;;;;4970107;28;20203;-67
2024/02/23 17:49:03;;;;;;;0.40;0.40;;;8.20;99.90;;;;;;4977639;28;20195;-69
2024/02/23 17:51:29;;;;;;;0.30;0.30;;;8.20;99.90;;;;;;4978195;28;20179;-68
2024/02/23 17:53:58;;;;;;;0.30;0.30;;;8.10;99.90;;;;;;4978097;28;20171;-67